Time;durP1;ratioP1;P1;durP2;ratioP2;P2;SDS_P1;SDS_P2;PMS_P1;PMS_P2;Temp;Humidity;BMP_temperature;BMP_pressure;BME280_temperature;BME280_humidity;BME280_pressure;Samples;Min_cycle;Max_cycle;Signal;HPM_P1;HPM_P2
2023/03/16 00:02:10;;;;;;;3.15;1.40;;;;;;;19.18;39.36;101654.63;16125133;19;129731;-53
2023/03/16 00:07:33;;;;;;;3.28;1.38;;;;;;;19.14;39.05;101653.41;16115074;19;133509;-51
2023/03/16 00:12:56;;;;;;;3.33;1.00;;;;;;;19.12;39.17;101646.41;16118180;19;129635;-55
2023/03/16 00:18:17;;;;;;;4.68;1.20;;;;;;;19.08;39.07;101644.06;16117554;19;130760;-47
2023/03/16 00:23:41;;;;;;;3.35;1.35;;;;;;;19.04;39.29;101637.31;16112070;19;129564;-49
2023/03/16 00:29:03;;;;;;;7.32;1.30;;;;;;;19.01;39.17;101632.22;16113518;19;130130;-51
2023/03/16 00:34:28;;;;;;;3.55;1.00;;;;;;;18.99;39.29;101622.47;16115088;19;129779;-52
2023/03/16 00:39:51;;;;;;;5.82;1.08;;;;;;;18.94;39.40;101625.94;16114030;19;130447;-52
2023/03/16 00:45:13;;;;;;;5.13;1.45;;;;;;;18.91;39.05;101609.75;16121385;19;130077;-51
2023/03/16 00:50:36;;;;;;;4.75;1.00;;;;;;;18.89;39.36;101617.44;16117351;19;131697;-53
2023/03/16 00:55:58;;;;;;;5.25;1.95;;;;;;;18.86;38.99;101607.69;16113999;19;135366;-50
2023/03/16 01:01:19;;;;;;;5.03;1.30;;;;;;;18.84;38.88;101614.50;16112555;19;130224;-53
2023/03/16 01:06:41;;;;;;;2.47;1.10;;;;;;;18.82;39.08;101602.81;15962814;19;2958062;-52
2023/03/16 01:12:12;;;;;;;2.40;0.95;;;;;;;18.81;38.98;101595.59;16117480;19;130375;-50
2023/03/16 01:17:33;;;;;;;4.88;1.33;;;;;;;18.76;38.89;101596.28;16118367;19;129813;-49
2023/03/16 01:22:55;;;;;;;4.20;1.20;;;;;;;18.73;38.92;101580.94;16124092;19;130883;-49
2023/03/16 01:28:23;;;;;;;3.13;1.40;;;;;;;18.71;39.07;101583.09;16113594;19;134716;-52
2023/03/16 01:33:45;;;;;;;4.97;1.00;;;;;;;18.69;38.72;101579.72;16114129;19;130227;-49
2023/03/16 01:39:07;;;;;;;4.38;1.08;;;;;;;18.67;38.90;101558.84;16119201;19;131672;-49
2023/03/16 01:44:31;;;;;;;2.38;0.90;;;;;;;18.64;39.13;101549.06;16117837;19;130609;-52
2023/03/16 01:49:55;;;;;;;6.25;1.60;;;;;;;18.63;38.98;101558.47;16117659;19;129688;-50
2023/03/16 01:55:17;;;;;;;4.85;1.10;;;;;;;18.62;39.01;101542.91;16116926;19;132798;-51
2023/03/16 02:00:40;;;;;;;2.65;1.08;;;;;;;18.59;38.96;101546.13;16115572;19;129919;-54
2023/03/16 02:06:10;;;;;;;3.00;0.85;;;;;;;18.57;39.15;101537.25;16112946;19;129834;-52
2023/03/16 02:11:33;;;;;;;4.25;1.08;;;;;;;18.55;39.03;101542.16;16109137;19;129753;-49
2023/03/16 02:16:55;;;;;;;4.15;0.90;;;;;;;18.54;39.06;101526.59;16106180;19;130820;-52
2023/03/16 02:22:17;;;;;;;1.65;0.90;;;;;;;18.53;38.82;101527.69;16109213;19;133683;-51
2023/03/16 02:27:56;;;;;;;2.38;1.10;;;;;;;18.52;38.84;101523.22;16115625;19;131932;-52
2023/03/16 02:33:20;;;;;;;1.60;0.90;;;;;;;18.50;38.80;101522.59;16113591;19;130678;-49
2023/03/16 02:38:41;;;;;;;1.02;0.70;;;;;;;18.46;38.96;101514.75;16111028;19;129498;-53
2023/03/16 02:44:05;;;;;;;2.13;1.00;;;;;;;18.45;38.62;101512.22;16110931;19;129647;-53
2023/03/16 02:49:35;;;;;;;1.30;1.00;;;;;;;18.45;38.89;101507.53;16115305;19;131488;-51
2023/03/16 02:54:57;;;;;;;3.75;0.90;;;;;;;18.43;38.71;101506.03;16115455;19;132262;-53
2023/03/16 03:00:20;;;;;;;1.63;0.95;;;;;;;18.41;38.55;101500.75;16111921;19;130065;-56
2023/03/16 03:05:42;;;;;;;1.50;0.70;;;;;;;18.38;38.99;101497.56;16110611;19;131296;-51
2023/03/16 03:11:04;;;;;;;3.85;1.23;;;;;;;18.37;38.62;101488.41;16109995;19;130168;-53
2023/03/16 03:16:26;;;;;;;1.00;0.73;;;;;;;18.36;38.75;101492.25;16107863;19;129572;-53
2023/03/16 03:21:49;;;;;;;2.65;0.90;;;;;;;18.33;38.87;101481.66;16110608;19;129607;-52
2023/03/16 03:27:10;;;;;;;1.73;1.00;;;;;;;18.32;38.59;101477.19;16112997;19;131331;-53
2023/03/16 03:32:32;;;;;;;1.23;0.70;;;;;;;18.32;38.84;101479.94;16109702;19;134828;-52
2023/03/16 03:37:54;;;;;;;3.90;1.10;;;;;;;18.29;38.61;101475.69;16110492;19;130485;-51
2023/03/16 03:43:16;;;;;;;1.20;0.75;;;;;;;18.29;38.47;101463.78;16100088;19;130373;-50
2023/03/16 03:48:38;;;;;;;2.28;0.90;;;;;;;18.27;38.82;101468.69;16106708;19;130820;-50
2023/03/16 03:53:59;;;;;;;2.03;1.00;;;;;;;18.25;38.76;101452.31;16107994;19;130010;-49
2023/03/16 03:59:21;;;;;;;1.27;0.80;;;;;;;18.24;38.43;101452.53;16119853;19;131138;-49
2023/03/16 04:04:43;;;;;;;3.22;0.85;;;;;;;18.22;38.47;101440.84;16122419;19;129197;-47
2023/03/16 04:10:06;;;;;;;1.10;0.70;;;;;;;18.20;38.26;101431.94;16122223;19;130741;-49
2023/03/16 04:15:29;;;;;;;1.38;0.77;;;;;;;18.19;38.27;101425.53;16124443;19;131724;-51
2023/03/16 04:20:53;;;;;;;1.58;0.90;;;;;;;18.18;38.15;101428.56;16124632;19;130521;-49
2023/03/16 04:26:15;;;;;;;1.20;0.70;;;;;;;18.16;38.19;101426.00;16120062;19;129400;-53
2023/03/16 04:31:37;;;;;;;2.20;0.77;;;;;;;18.15;38.08;101419.63;16118138;19;134180;-51
2023/03/16 04:36:59;;;;;;;1.60;0.90;;;;;;;18.13;38.10;101421.78;16122436;19;130414;-52
2023/03/16 04:42:21;;;;;;;1.20;0.80;;;;;;;18.12;38.09;101405.41;16125467;19;130920;-53
2023/03/16 04:47:43;;;;;;;2.15;0.70;;;;;;;18.11;38.18;101406.47;16116769;19;130295;-49
2023/03/16 04:53:05;;;;;;;2.38;0.63;;;;;;;18.09;37.95;101406.69;16118571;19;129857;-53
2023/03/16 04:58:27;;;;;;;1.08;0.70;;;;;;;18.07;37.71;101395.03;16119943;19;129776;-49
2023/03/16 05:03:49;;;;;;;2.20;0.68;;;;;;;18.05;37.70;101394.41;16118044;19;130585;-52
2023/03/16 05:09:10;;;;;;;1.15;0.65;;;;;;;18.04;37.92;101395.47;16114705;19;131821;-52
2023/03/16 05:14:34;;;;;;;2.33;0.90;;;;;;;18.02;37.74;101397.63;16119283;19;134094;-51
2023/03/16 05:19:57;;;;;;;1.20;0.65;;;;;;;18.02;37.90;101394.03;16118082;19;130621;-47
2023/03/16 05:25:19;;;;;;;2.15;0.88;;;;;;;18.00;37.39;101383.16;16117438;19;129572;-50
2023/03/16 05:30:42;;;;;;;0.50;0.50;;;;;;;17.98;37.33;101382.53;16113431;19;129431;-47
2023/03/16 05:36:04;;;;;;;1.63;0.95;;;;;;;17.98;37.62;101374.25;16117764;19;129783;-50
2023/03/16 05:41:25;;;;;;;1.75;0.70;;;;;;;17.97;37.22;101364.28;16115575;19;130188;-51
2023/03/16 05:46:47;;;;;;;1.70;0.70;;;;;;;17.95;37.37;101363.66;16114924;19;129713;-53
2023/03/16 05:52:09;;;;;;;1.80;0.63;;;;;;;17.92;37.18;101376.00;16119824;19;129469;-51
2023/03/16 05:57:32;;;;;;;1.58;0.65;;;;;;;17.92;37.15;101353.03;16115659;19;130256;-50
2023/03/16 06:02:54;;;;;;;1.95;0.80;;;;;;;17.91;36.71;101365.19;16115494;19;129789;-51
2023/03/16 06:08:16;;;;;;;2.13;0.90;;;;;;;18.03;36.57;101371.63;16113705;19;130905;-54
2023/03/16 06:13:38;;;;;;;1.88;0.73;;;;;;;18.48;35.99;101347.44;16109274;19;130534;-49
2023/03/16 06:19:00;;;;;;;2.50;0.60;;;;;;;19.07;35.11;101354.00;16109578;19;130835;-53
2023/03/16 06:24:22;;;;;;;8.07;1.00;;;;;;;19.44;34.46;101346.56;16112283;19;131195;-53
2023/03/16 06:29:44;;;;;;;7.63;1.10;;;;;;;19.57;33.85;101329.66;16096870;19;133302;-50
2023/03/16 06:35:06;;;;;;;13.02;1.10;;;;;;;19.57;33.69;101326.88;16099658;19;132575;-51
2023/03/16 06:40:27;;;;;;;17.60;1.27;;;;;;;19.52;33.51;101326.78;16108509;19;130216;-53
2023/03/16 06:45:50;;;;;;;22.73;1.52;;;;;;;19.44;33.66;101344.63;16113447;19;129307;-50
2023/03/16 06:51:12;;;;;;;14.80;1.60;;;;;;;19.35;33.52;101344.13;16112077;19;130495;-53
2023/03/16 06:56:37;;;;;;;9.23;1.57;;;;;;;19.25;33.85;101343.06;16114983;19;129581;-49
2023/03/16 07:01:58;;;;;;;18.33;1.20;;;;;;;19.15;33.95;101338.06;16101850;19;132241;-52
2023/03/16 07:07:20;;;;;;;10.82;1.00;;;;;;;19.05;33.94;101333.13;16109171;19;131602;-47
2023/03/16 07:12:43;;;;;;;12.98;1.33;;;;;;;18.97;34.20;101336.25;16108796;19;130261;-52
2023/03/16 07:18:05;;;;;;;10.35;1.10;;;;;;;18.88;34.44;101344.91;16111628;19;130691;-52
2023/03/16 07:23:27;;;;;;;13.95;1.30;;;;;;;18.77;34.77;101349.34;16110972;19;129896;-52
2023/03/16 07:28:48;;;;;;;6.60;1.23;;;;;;;18.72;34.84;101337.28;16110594;19;130205;-53
2023/03/16 07:34:10;;;;;;;21.80;1.35;;;;;;;18.65;34.80;101330.97;16122813;19;130863;-49
2023/03/16 07:39:32;;;;;;;7.93;0.95;;;;;;;18.60;34.64;101340.88;16123077;19;131368;-47
2023/03/16 07:44:54;;;;;;;7.30;1.10;;;;;;;18.54;34.46;101347.34;16125595;19;129541;-49
2023/03/16 07:50:18;;;;;;;10.23;1.45;;;;;;;18.51;34.75;101349.72;16125791;19;129983;-50
2023/03/16 07:55:41;;;;;;;13.93;1.60;;;;;;;18.49;34.83;101343.56;16128457;19;129729;-51
2023/03/16 08:01:03;;;;;;;8.32;1.27;;;;;;;18.50;34.46;101350.81;16122631;19;130445;-48
2023/03/16 08:06:26;;;;;;;7.05;0.98;;;;;;;18.65;34.39;101348.47;16123690;19;131663;-51
2023/03/16 08:11:48;;;;;;;5.28;1.02;;;;;;;18.88;34.15;101350.47;16124567;19;130850;-51
2023/03/16 08:17:11;;;;;;;2.72;1.13;;;;;;;19.22;33.86;101358.25;16124514;19;129937;-49
2023/03/16 08:22:35;;;;;;;9.98;1.15;;;;;;;21.37;31.50;101351.72;16120217;19;130108;-50
2023/03/16 08:27:57;;;;;;;7.45;1.13;;;;;;;21.81;31.06;101339.00;16123748;19;130128;-52
2023/03/16 08:33:21;;;;;;;18.58;1.20;;;;;;;21.79;30.98;101339.25;16116880;19;130714;-48
2023/03/16 08:38:45;;;;;;;3.40;0.90;;;;;;;21.40;30.77;101349.53;16120927;19;129175;-51
2023/03/16 08:44:27;;;;;;;4.10;0.98;;;;;;;21.11;31.14;101342.13;16116031;19;131326;-51
2023/03/16 08:49:49;;;;;;;6.35;0.88;;;;;;;20.84;31.68;101326.09;16121921;19;130190;-50
2023/03/16 08:55:12;;;;;;;14.38;1.08;;;;;;;20.62;31.60;101319.56;16122905;19;129546;-50
2023/03/16 09:00:34;;;;;;;12.27;1.40;;;;;;;20.47;31.98;101320.97;16118475;19;130586;-49
2023/03/16 09:06:07;;;;;;;9.32;1.00;;;;;;;20.39;32.04;101326.94;16120011;19;131913;-48
2023/03/16 09:11:32;;;;;;;9.73;0.90;;;;;;;20.30;32.19;101334.81;16119852;19;129370;-52
2023/03/16 09:16:55;;;;;;;12.52;1.70;;;;;;;20.21;32.06;101331.59;16123345;19;130011;-52
2023/03/16 09:22:18;;;;;;;9.00;1.00;;;;;;;20.13;32.22;101326.44;16120697;19;130003;-48
2023/03/16 09:27:40;;;;;;;6.55;1.00;;;;;;;20.06;32.04;101314.63;16118950;19;130534;-52
2023/03/16 09:33:03;;;;;;;8.57;1.08;;;;;;;19.98;32.10;101318.59;16114500;19;130130;-48
2023/03/16 09:38:25;;;;;;;13.82;1.35;;;;;;;19.89;32.12;101307.03;16116199;19;131581;-48
2023/03/16 09:43:59;;;;;;;5.70;0.65;;;;;;;19.84;32.15;101312.47;16120453;19;129474;-49
2023/03/16 09:49:26;;;;;;;8.35;0.98;;;;;;;19.78;31.74;101307.91;16116787;19;131263;-48
2023/03/16 09:55:00;;;;;;;8.57;1.17;;;;;;;19.71;32.15;101304.41;16112415;19;129466;-47
2023/03/16 10:00:24;;;;;;;4.28;0.80;;;;;;;19.63;32.11;101292.59;16117346;19;130807;-47
2023/03/16 10:05:54;;;;;;;4.68;1.00;;;;;;;19.57;32.12;101292.75;16105370;19;129511;-48
2023/03/16 10:11:35;;;;;;;2.47;0.82;;;;;;;19.52;32.13;101299.03;16119264;19;129504;-53
2023/03/16 10:16:57;;;;;;;3.33;0.82;;;;;;;19.48;32.50;101303.34;16117780;19;129080;-52
2023/03/16 10:22:22;;;;;;;4.10;1.10;;;;;;;19.48;32.31;101300.59;16110084;19;129431;-54
2023/03/16 10:27:45;;;;;;;6.38;0.90;;;;;;;19.47;32.38;101290.56;16115920;19;129035;-49
2023/03/16 10:33:26;;;;;;;4.63;0.60;;;;;;;19.48;32.50;101281.16;16111921;19;129857;-51
2023/03/16 10:39:09;;;;;;;2.50;0.60;;;;;;;19.46;32.54;101272.22;16112432;19;133490;-50
2023/03/16 10:44:31;;;;;;;5.82;0.60;;;;;;;19.42;32.76;101263.56;16114629;19;131396;-51
2023/03/16 10:49:54;;;;;;;4.32;0.70;;;;;;;19.40;32.64;101267.66;16114453;19;130026;-51
2023/03/16 10:55:21;;;;;;;7.38;1.42;;;;;;;19.37;32.36;101253.19;16115667;19;130228;-50
2023/03/16 11:00:45;;;;;;;4.32;1.00;;;;;;;19.33;32.37;101238.13;16109637;19;129918;-52
2023/03/16 11:06:19;;;;;;;13.88;0.63;;;;;;;19.32;32.34;101232.81;16116919;19;129550;-49
2023/03/16 11:11:48;;;;;;;9.60;1.05;;;;;;;19.26;32.18;101240.19;16119689;19;130490;-44
2023/03/16 11:17:16;;;;;;;17.02;1.00;;;;;;;19.23;32.08;101229.56;16128840;19;130931;-45
2023/03/16 11:22:40;;;;;;;7.82;1.15;;;;;;;19.22;32.27;101219.56;16123405;19;131342;-40
2023/03/16 11:28:07;;;;;;;9.75;1.10;;;;;;;19.21;32.29;101209.53;16127655;19;131223;-41
2023/03/16 11:33:30;;;;;;;12.23;1.45;;;;;;;19.18;32.25;101198.94;16128498;19;130495;-40
2023/03/16 11:39:20;;;;;;;5.53;1.20;;;;;;;19.19;31.83;101183.97;16121872;19;133936;-41
2023/03/16 11:44:54;;;;;;;8.77;1.23;;;;;;;19.18;32.16;101182.28;16123321;19;129693;-43
2023/03/16 11:50:18;;;;;;;9.45;1.20;;;;;;;19.15;32.16;101182.78;16128768;19;130095;-47
2023/03/16 11:55:51;;;;;;;7.95;1.23;;;;;;;19.10;32.32;101186.28;16124484;19;129170;-43
2023/03/16 12:01:32;;;;;;;7.28;1.10;;;;;;;19.05;32.22;101184.25;16124822;19;129372;-43
2023/03/16 12:07:00;;;;;;;5.45;0.73;;;;;;;19.01;32.13;101183.03;16125146;19;129725;-46
2023/03/16 12:12:34;;;;;;;9.30;1.00;;;;;;;18.99;31.81;101164.97;16118245;19;130498;-45
2023/03/16 12:18:01;;;;;;;5.35;1.25;;;;;;;18.96;31.76;101152.41;16126301;19;130248;-46
2023/03/16 12:23:31;;;;;;;2.22;0.70;;;;;;;18.95;31.82;101136.03;16120454;19;129602;-46
2023/03/16 12:28:55;;;;;;;2.22;0.80;;;;;;;18.91;31.74;101127.34;16128250;19;130304;-44
2023/03/16 12:34:46;;;;;;;3.38;0.70;;;;;;;18.88;31.95;101125.91;16122079;19;131161;-44
2023/03/16 12:40:27;;;;;;;5.82;0.80;;;;;;;18.85;31.77;101106.13;16118216;19;129425;-43
2023/03/16 12:46:04;;;;;;;5.72;1.00;;;;;;;18.81;31.88;101083.63;16123250;19;131137;-44
2023/03/16 12:51:34;;;;;;;3.15;0.88;;;;;;;18.80;32.04;101086.63;16122155;19;129539;-44
2023/03/16 12:57:04;;;;;;;4.82;1.02;;;;;;;18.77;32.15;101076.84;16126852;19;129266;-44
2023/03/16 13:02:33;;;;;;;4.90;1.13;;;;;;;18.75;32.14;101066.03;16120750;19;130237;-46
2023/03/16 13:08:14;;;;;;;2.70;1.10;;;;;;;18.75;32.40;101059.66;16120748;19;130716;-43
2023/03/16 13:14:11;;;;;;;6.80;0.80;;;;;;;18.71;32.07;101044.59;16119556;19;130091;-46
2023/03/16 13:19:36;;;;;;;;;;;;;;;18.67;32.29;101043.38;16115401;19;129718;-44
2023/03/16 13:25:37;;;;;;;4.07;0.95;;;;;;;18.68;32.46;101040.38;16108990;19;129954;-47
2023/03/16 13:30:59;;;;;;;1.48;0.70;;;;;;;18.65;32.62;101040.88;16107680;19;129867;-46
2023/03/16 13:36:24;;;;;;;2.35;1.00;;;;;;;18.65;32.64;101035.31;16106275;19;129809;-46
2023/03/16 13:42:06;;;;;;;1.92;0.77;;;;;;;18.66;32.53;101025.94;16105162;19;129940;-46
2023/03/16 13:47:28;;;;;;;4.53;0.90;;;;;;;18.62;32.49;101024.72;16105938;19;129673;-43
2023/03/16 13:52:59;;;;;;;5.43;0.95;;;;;;;18.64;32.35;101008.69;16114124;19;131255;-44
2023/03/16 13:58:30;;;;;;;6.75;1.42;;;;;;;18.62;32.48;101005.31;16112980;19;129496;-44
2023/03/16 14:03:59;;;;;;;1.63;0.90;;;;;;;18.58;32.48;100982.81;16118674;19;129845;-45
2023/03/16 14:09:24;;;;;;;2.05;0.80;;;;;;;18.58;32.48;100979.22;16113799;19;132892;-45
2023/03/16 14:14:53;;;;;;;1.70;0.50;;;;;;;18.56;32.29;100976.66;16113477;19;130525;-48
2023/03/16 14:20:24;;;;;;;1.75;0.80;;;;;;;18.54;32.21;100969.69;16119610;19;131453;-44
2023/03/16 14:25:48;;;;;;;1.17;0.60;;;;;;;18.64;32.13;100967.13;16114662;19;130204;-44
2023/03/16 14:31:12;;;;;;;2.47;0.80;;;;;;;18.79;32.17;100955.50;16113336;19;131268;-44
2023/03/16 14:36:36;;;;;;;2.35;0.70;;;;;;;18.90;31.86;100948.25;16113904;19;131297;-43
2023/03/16 14:42:02;;;;;;;3.78;0.70;;;;;;;18.97;31.78;100957.25;16115252;19;131178;-43
2023/03/16 14:47:28;;;;;;;1.27;0.73;;;;;;;18.99;32.12;100941.22;16110574;19;129090;-48
2023/03/16 14:52:52;;;;;;;2.63;0.70;;;;;;;19.00;31.74;100953.16;16116908;19;130630;-46
2023/03/16 14:58:14;;;;;;;1.93;0.70;;;;;;;18.99;32.01;100949.53;16115248;19;130556;-44
2023/03/16 15:03:36;;;;;;;2.38;0.60;;;;;;;18.96;31.77;100936.16;16110905;19;129275;-45
2023/03/16 15:08:59;;;;;;;2.22;0.65;;;;;;;18.94;31.76;100924.50;16110918;19;130204;-47
2023/03/16 15:20:02;;;;;;;1.50;0.60;;;;;;;18.87;31.85;100908.00;16111906;19;130264;-44
2023/03/16 15:25:37;;;;;;;1.25;0.60;;;;;;;18.86;32.10;100902.69;16108383;19;129766;-45
2023/03/16 15:31:01;;;;;;;1.67;0.60;;;;;;;18.83;31.81;100897.69;16114194;19;129429;-44
2023/03/16 15:36:24;;;;;;;2.75;0.50;;;;;;;18.83;31.82;100892.13;16109491;19;131019;-44
2023/03/16 15:41:46;;;;;;;1.27;0.52;;;;;;;18.80;31.83;100887.06;16111153;19;129814;-45
2023/03/16 15:47:09;;;;;;;3.20;0.90;;;;;;;18.79;32.22;100890.94;16111923;19;130045;-47
2023/03/16 15:52:35;;;;;;;2.55;0.73;;;;;;;18.76;32.26;100876.47;16118519;19;130171;-44
2023/03/16 15:57:59;;;;;;;2.33;0.82;;;;;;;18.74;31.94;100886.97;16129168;19;129709;-46
2023/03/16 16:03:21;;;;;;;1.52;0.45;;;;;;;18.73;32.13;100879.75;16123938;19;129909;-45
2023/03/16 16:08:43;;;;;;;4.43;0.85;;;;;;;18.70;32.78;100883.03;16122725;19;129753;-44
2023/03/16 16:14:05;;;;;;;5.15;0.98;;;;;;;18.74;33.72;100875.88;16122580;19;129370;-45
2023/03/16 16:19:27;;;;;;;1.50;0.75;;;;;;;18.83;34.51;100869.97;16121796;19;129560;-48
2023/03/16 16:24:48;;;;;;;6.25;0.68;;;;;;;18.97;34.76;100871.31;16127866;19;131989;-45
2023/03/16 16:30:21;;;;;;;6.45;1.00;;;;;;;19.12;35.44;100869.91;16121024;19;130740;-48
2023/03/16 16:35:44;;;;;;;5.15;1.02;;;;;;;19.21;35.22;100860.09;16120552;19;130854;-44
2023/03/16 16:41:08;;;;;;;2.67;0.68;;;;;;;19.22;33.40;100856.22;16118408;19;129923;-48
2023/03/16 16:46:34;;;;;;;3.28;1.00;;;;;;;19.08;32.89;100862.06;16121958;19;128995;-48
2023/03/16 16:51:57;;;;;;;7.25;0.88;;;;;;;19.14;33.08;100865.78;16121562;19;129383;-45
2023/03/16 16:57:19;;;;;;;3.42;0.70;;;;;;;19.21;33.52;100868.41;16121417;19;130168;-44
2023/03/16 17:02:45;;;;;;;4.75;0.90;;;;;;;19.23;33.84;100863.44;16119678;19;131820;-45
2023/03/16 17:08:10;;;;;;;2.47;0.60;;;;;;;19.22;33.72;100859.00;16117946;19;131184;-45
2023/03/16 17:13:37;;;;;;;6.97;1.13;;;;;;;19.20;34.08;100853.69;16117320;19;129712;-46
2023/03/16 17:19:00;;;;;;;8.60;1.00;;;;;;;19.17;34.84;100850.59;16116323;19;130824;-46
2023/03/16 17:24:23;;;;;;;4.93;1.20;;;;;;;19.15;35.24;100849.97;16118767;19;131352;-44
2023/03/16 17:29:44;;;;;;;5.63;1.48;;;;;;;19.11;35.61;100849.66;16116779;19;130845;-47
2023/03/16 17:35:14;;;;;;;3.75;1.20;;;;;;;19.15;35.88;100844.44;16112396;19;129480;-44
2023/03/16 17:40:36;;;;;;;8.75;1.70;;;;;;;19.30;36.09;100852.19;16110326;19;132252;-48
2023/03/16 17:45:59;;;;;;;9.55;2.45;;;;;;;19.49;36.10;100838.91;16117557;19;130704;-50
2023/03/16 17:51:24;;;;;;;11.90;4.20;;;;;;;19.68;36.33;100839.44;16117958;19;130827;-46
2023/03/16 17:56:50;;;;;;;13.02;4.57;;;;;;;19.82;36.75;100824.09;16115369;19;131180;-49
2023/03/16 18:02:45;;;;;;;18.20;5.47;;;;;;;19.91;37.38;100841.16;16113638;19;132901;-45
2023/03/16 18:08:12;;;;;;;19.58;4.45;;;;;;;19.91;36.91;100846.72;16114512;19;131044;-47
2023/03/16 18:13:36;;;;;;;11.60;4.32;;;;;;;19.93;37.24;100844.53;16111789;19;130893;-46
2023/03/16 18:19:22;;;;;;;13.77;4.57;;;;;;;19.96;37.86;100849.56;16119345;19;130721;-46
2023/03/16 18:24:45;;;;;;;11.37;4.23;;;;;;;20.03;37.98;100845.78;16097174;19;129458;-47
2023/03/16 18:30:08;;;;;;;13.38;4.25;;;;;;;20.11;38.58;100840.63;16114423;19;131084;-53
2023/03/16 18:35:30;;;;;;;13.80;4.10;;;;;;;20.18;38.73;100848.78;16111055;19;130093;-49
2023/03/16 18:40:52;;;;;;;13.10;4.28;;;;;;;20.23;39.10;100834.91;16034043;19;144145;-52
2023/03/16 18:46:25;;;;;;;18.35;3.88;;;;;;;20.25;39.33;100818.84;16114992;19;131020;-52
2023/03/16 18:51:52;;;;;;;20.33;5.43;;;;;;;20.24;39.12;100822.72;16115349;19;129960;-51
2023/03/16 18:57:20;;;;;;;33.00;5.68;;;;;;;20.23;39.62;100814.66;16117691;19;130039;-49
2023/03/16 19:02:43;;;;;;;20.52;4.90;;;;;;;20.29;39.58;100820.00;16111027;19;131338;-50
2023/03/16 19:08:05;;;;;;;36.20;5.78;;;;;;;20.34;39.59;100816.44;16111599;19;130683;-52
2023/03/16 19:13:27;;;;;;;28.10;5.07;;;;;;;20.36;39.70;100808.69;16107948;19;130149;-50
2023/03/16 19:18:49;;;;;;;18.23;5.32;;;;;;;20.34;39.89;100804.47;16116061;19;129107;-51
2023/03/16 19:24:22;;;;;;;23.23;5.00;;;;;;;20.29;40.69;100803.34;16112027;19;129647;-52
2023/03/16 19:29:44;;;;;;;20.00;4.40;;;;;;;20.21;40.39;100806.56;16122611;19;129491;-48
2023/03/16 19:35:15;;;;;;;23.33;5.05;;;;;;;20.15;40.46;100793.72;16126642;19;131059;-47
2023/03/16 19:40:37;;;;;;;19.30;4.32;;;;;;;20.06;40.47;100790.56;16123371;19;130323;-46
2023/03/16 19:45:59;;;;;;;13.63;4.35;;;;;;;20.00;40.88;100794.38;16124012;19;129529;-45
2023/03/16 19:51:21;;;;;;;18.25;4.22;;;;;;;19.93;41.04;100785.38;16128041;19;129633;-44
2023/03/16 19:56:43;;;;;;;25.23;3.83;;;;;;;19.90;40.75;100789.50;16132175;19;129382;-49
2023/03/16 20:02:21;;;;;;;17.55;3.65;;;;;;;20.00;41.11;100783.25;16126161;19;130720;-47
2023/03/16 20:07:44;;;;;;;20.13;4.80;;;;;;;20.25;40.72;100782.72;16127454;19;131882;-48
2023/03/16 20:13:09;;;;;;;24.98;4.60;;;;;;;20.69;40.34;100755.91;16121190;19;130234;-44
2023/03/16 20:18:31;;;;;;;27.33;4.13;;;;;;;21.14;39.44;100754.63;16124614;19;130206;-49
2023/03/16 20:23:53;;;;;;;15.25;3.60;;;;;;;21.48;39.36;100753.44;16126226;19;130904;-47
2023/03/16 20:29:22;;;;;;;16.38;3.90;;;;;;;21.75;39.02;100750.53;16127439;19;129470;-48
2023/03/16 20:34:45;;;;;;;27.98;4.40;;;;;;;21.98;38.11;100749.22;16117689;19;131227;-42
2023/03/16 20:40:08;;;;;;;22.73;4.07;;;;;;;22.06;38.19;100742.28;16119846;19;129558;-47
2023/03/16 20:45:30;;;;;;;20.13;4.00;;;;;;;22.04;38.20;100747.28;16118412;19;130169;-43
2023/03/16 20:50:54;;;;;;;21.13;3.97;;;;;;;21.95;38.20;100751.72;16122747;19;134075;-47
2023/03/16 20:56:20;;;;;;;18.70;3.55;;;;;;;21.80;38.40;100744.97;16122627;19;129813;-47
2023/03/16 21:01:44;;;;;;;17.05;3.55;;;;;;;21.66;38.82;100724.34;16120030;19;129924;-46
2023/03/16 21:07:07;;;;;;;18.80;3.30;;;;;;;21.54;38.88;100726.50;16115650;19;132292;-46
2023/03/16 21:12:34;;;;;;;13.20;3.45;;;;;;;21.41;39.02;100725.88;16115486;19;131861;-45
2023/03/16 21:18:01;;;;;;;13.57;3.63;;;;;;;21.28;38.95;100735.53;16121926;19;129672;-46
2023/03/16 21:23:23;;;;;;;14.20;3.13;;;;;;;21.16;39.41;100727.41;16106033;19;131370;-42
2023/03/16 21:28:56;;;;;;;21.98;3.55;;;;;;;21.04;39.06;100718.41;16119892;19;130539;-43
2023/03/16 21:34:24;;;;;;;15.30;3.33;;;;;;;20.90;39.08;100688.28;16117336;19;130545;-45
2023/03/16 21:39:47;;;;;;;22.35;3.60;;;;;;;20.78;38.99;100692.34;16116892;19;129800;-44
2023/03/16 21:45:09;;;;;;;10.50;2.88;;;;;;;20.67;38.97;100680.31;16100923;19;131412;-48
2023/03/16 21:50:34;;;;;;;9.82;2.72;;;;;;;20.55;38.63;100689.66;16089746;19;131257;-44
2023/03/16 21:55:56;;;;;;;11.70;2.77;;;;;;;20.45;38.64;100722.91;16099363;19;130952;-47
2023/03/16 22:01:27;;;;;;;14.45;3.63;;;;;;;20.36;38.71;100714.22;16103103;19;130146;-46
2023/03/16 22:06:49;;;;;;;13.48;2.47;;;;;;;20.26;38.91;100714.09;16115808;19;131032;-48
2023/03/16 22:12:12;;;;;;;10.48;2.63;;;;;;;20.18;38.72;100707.13;16112641;19;129533;-47
2023/03/16 22:17:35;;;;;;;10.77;2.63;;;;;;;20.12;38.77;100713.69;16119644;19;130658;-46
2023/03/16 22:22:57;;;;;;;10.77;2.63;;;;;;;20.06;39.15;100711.97;16119398;19;129839;-43
2023/03/16 22:28:19;;;;;;;10.73;2.22;;;;;;;19.98;38.88;100710.47;16114702;19;130200;-47
2023/03/16 22:33:42;;;;;;;7.80;2.50;;;;;;;19.90;39.08;100705.38;16113647;19;129560;-47
2023/03/16 22:39:11;;;;;;;10.57;2.38;;;;;;;19.83;39.05;100677.81;16111778;19;131968;-44
2023/03/16 22:44:32;;;;;;;6.18;2.45;;;;;;;19.79;38.84;100671.13;16114907;19;134224;-46
2023/03/16 22:49:54;;;;;;;8.20;2.47;;;;;;;19.74;38.87;100671.06;16116007;19;129695;-48
2023/03/16 22:55:21;;;;;;;8.57;2.13;;;;;;;19.67;38.80;100677.66;16116471;19;129571;-43
2023/03/16 23:00:44;;;;;;;10.10;2.20;;;;;;;19.62;39.18;100680.34;16110807;19;132036;-46
2023/03/16 23:06:09;;;;;;;6.97;1.83;;;;;;;19.57;39.10;100674.72;16109365;19;130710;-42
2023/03/16 23:11:34;;;;;;;7.05;2.13;;;;;;;19.54;38.91;100661.41;16110273;19;130225;-43
2023/03/16 23:16:56;;;;;;;5.07;1.85;;;;;;;19.49;38.63;100666.88;16112583;19;130766;-45
2023/03/16 23:22:18;;;;;;;7.38;1.90;;;;;;;19.46;38.59;100662.69;16110236;19;129728;-45
2023/03/16 23:27:40;;;;;;;7.72;1.92;;;;;;;19.43;38.90;100662.38;16106926;19;131309;-45
2023/03/16 23:33:02;;;;;;;6.22;2.20;;;;;;;19.40;38.69;100671.22;16104503;19;129815;-46
2023/03/16 23:38:24;;;;;;;7.28;2.08;;;;;;;19.37;38.85;100680.88;16110373;19;129827;-45
2023/03/16 23:43:47;;;;;;;5.03;1.58;;;;;;;19.34;38.79;100687.78;16112579;19;130003;-47
2023/03/16 23:49:17;;;;;;;3.60;1.55;;;;;;;19.31;38.49;100688.31;16109411;19;129838;-47
2023/03/16 23:54:38;;;;;;;4.80;1.88;;;;;;;19.27;38.78;100678.81;16110151;19;129658;-44
